createdAt,value
2023-05-07T00:02:10.830Z,3.38
2023-05-07T00:05:14.288Z,3.45
2023-05-07T00:08:17.360Z,4.00
2023-05-07T00:11:21.509Z,3.70
2023-05-07T00:14:24.288Z,3.65
2023-05-07T00:17:27.156Z,3.55
2023-05-07T00:20:30.081Z,3.20
2023-05-07T00:23:32.887Z,3.80
2023-05-07T00:26:36.993Z,3.13
2023-05-07T00:29:39.770Z,3.60
2023-05-07T00:32:42.770Z,3.00
2023-05-07T00:35:45.728Z,3.33
2023-05-07T00:38:48.507Z,4.00
2023-05-07T00:41:52.832Z,3.45
2023-05-07T00:44:56.183Z,3.33
2023-05-07T00:48:01.564Z,2.97
2023-05-07T00:51:04.731Z,2.92
2023-05-07T00:54:07.580Z,3.40
2023-05-07T00:57:13.170Z,2.92
2023-05-07T01:00:16.317Z,3.00
2023-05-07T01:03:19.103Z,3.33
2023-05-07T01:06:25.089Z,2.97
2023-05-07T01:09:29.310Z,2.88
2023-05-07T01:12:34.430Z,3.10
2023-05-07T01:15:37.191Z,3.30
2023-05-07T01:18:40.037Z,3.55
2023-05-07T01:21:47.002Z,3.08
2023-05-07T01:24:52.202Z,3.17
2023-05-07T01:27:55.234Z,3.45
2023-05-07T01:31:05.037Z,2.75
2023-05-07T01:34:10.476Z,3.15
2023-05-07T01:37:13.513Z,3.05
2023-05-07T01:40:18.400Z,3.08
2023-05-07T01:43:21.718Z,2.97
2023-05-07T01:46:25.200Z,2.95
2023-05-07T01:49:28.575Z,2.78
2023-05-07T01:52:31.436Z,2.85
2023-05-07T01:55:37.728Z,2.78
2023-05-07T01:58:40.850Z,2.60
2023-05-07T02:01:44.693Z,2.38
2023-05-07T02:04:48.503Z,2.70
2023-05-07T02:07:52.120Z,3.25
2023-05-07T02:10:56.469Z,2.70
2023-05-07T02:13:59.267Z,2.95
2023-05-07T02:17:02.073Z,3.05
2023-05-07T02:20:05.837Z,3.00
2023-05-07T02:23:08.698Z,2.60
2023-05-07T02:26:13.045Z,2.63
2023-05-07T02:29:15.869Z,2.67
2023-05-07T02:32:18.888Z,2.80
2023-05-07T02:35:21.643Z,2.53
2023-05-07T02:38:25.098Z,2.50
2023-05-07T02:41:29.473Z,2.80
2023-05-07T02:44:32.586Z,2.50
2023-05-07T02:47:35.761Z,2.42
2023-05-07T02:50:39.291Z,2.58
2023-05-07T02:53:42.127Z,2.60
2023-05-07T02:56:46.300Z,2.80
2023-05-07T02:59:49.079Z,2.60
2023-05-07T03:02:53.066Z,2.72
2023-05-07T03:05:56.008Z,2.45
2023-05-07T03:08:58.754Z,2.17
2023-05-07T03:12:03.356Z,2.70
2023-05-07T03:15:07.402Z,2.40
2023-05-07T03:18:10.443Z,2.70
2023-05-07T03:21:13.464Z,2.30
2023-05-07T03:24:16.296Z,2.55
2023-05-07T03:27:20.450Z,2.67
2023-05-07T03:30:23.963Z,2.53
2023-05-07T03:33:28.370Z,2.55
2023-05-07T03:36:31.630Z,2.40
2023-05-07T03:39:34.407Z,2.40
2023-05-07T03:42:38.781Z,2.53
2023-05-07T03:45:41.905Z,2.53
2023-05-07T03:48:52.121Z,2.30
2023-05-07T03:51:56.598Z,2.65
2023-05-07T03:55:00.589Z,2.22
2023-05-07T03:58:05.022Z,2.45
2023-05-07T04:01:08.382Z,2.28
2023-05-07T04:04:11.587Z,2.40
2023-05-07T04:07:14.656Z,2.50
2023-05-07T04:10:20.585Z,2.40
2023-05-07T04:13:27.179Z,2.70
2023-05-07T04:16:30.648Z,2.55
2023-05-07T04:19:35.343Z,2.35
2023-05-07T04:22:38.331Z,2.10
2023-05-07T04:25:41.225Z,2.38
2023-05-07T04:28:50.675Z,2.42
2023-05-07T04:31:54.441Z,2.10
2023-05-07T04:34:57.440Z,2.50
2023-05-07T04:38:00.329Z,2.38
2023-05-07T04:41:06.213Z,2.47
2023-05-07T04:44:13.247Z,2.15
2023-05-07T04:47:16.285Z,2.30
2023-05-07T04:50:20.291Z,2.15
2023-05-07T04:53:24.860Z,2.63
2023-05-07T04:56:30.109Z,1.90
2023-05-07T04:59:35.673Z,2.10
2023-05-07T05:02:38.700Z,2.35
2023-05-07T05:05:42.117Z,2.28
2023-05-07T05:08:45.422Z,2.17
2023-05-07T05:11:49.138Z,2.50
2023-05-07T05:14:54.257Z,2.20
2023-05-07T05:17:57.700Z,2.30
2023-05-07T05:21:00.799Z,2.10
2023-05-07T05:24:04.795Z,2.30
2023-05-07T05:27:07.748Z,2.20
2023-05-07T05:30:14.010Z,1.95
2023-05-07T05:33:18.487Z,1.80
2023-05-07T05:36:21.636Z,1.95
2023-05-07T05:39:26.862Z,1.80
2023-05-07T05:42:29.904Z,2.42
2023-05-07T05:45:34.206Z,2.35
2023-05-07T05:48:37.004Z,2.10
2023-05-07T05:51:41.488Z,2.03
2023-05-07T05:54:44.690Z,2.25
2023-05-07T05:57:47.745Z,2.20
2023-05-07T06:00:53.231Z,2.00
2023-05-07T06:04:01.119Z,1.90
2023-05-07T06:07:03.914Z,2.17
2023-05-07T06:10:08.298Z,2.20
2023-05-07T06:13:11.977Z,2.13
2023-05-07T06:16:17.437Z,1.98
2023-05-07T06:19:24.183Z,2.25
2023-05-07T06:22:29.336Z,2.20
2023-05-07T06:25:32.502Z,1.90
2023-05-07T06:28:36.886Z,2.00
2023-05-07T06:31:43.477Z,2.40
2023-05-07T06:34:47.653Z,1.70
2023-05-07T06:37:51.548Z,1.90
2023-05-07T06:40:58.911Z,1.95
2023-05-07T06:44:01.998Z,2.17
2023-05-07T06:47:16.400Z,1.95
2023-05-07T06:50:22.196Z,1.92
2023-05-07T06:53:25.726Z,1.90
2023-05-07T06:56:30.667Z,2.10
2023-05-07T06:59:33.816Z,2.30
2023-05-07T07:02:38.683Z,1.88
2023-05-07T07:05:42.454Z,1.70
2023-05-07T07:08:45.470Z,1.75
2023-05-07T07:11:51.085Z,1.63
2023-05-07T07:14:55.181Z,2.03
2023-05-07T07:18:00.215Z,2.00
2023-05-07T07:21:03.178Z,1.77
2023-05-07T07:24:07.068Z,1.95
2023-05-07T07:27:09.945Z,2.15
2023-05-07T07:30:13.541Z,1.88
2023-05-07T07:33:19.777Z,2.13
2023-05-07T07:36:23.786Z,1.77
2023-05-07T07:39:30.364Z,2.10
2023-05-07T07:42:33.156Z,1.83
2023-05-07T07:45:36.665Z,1.95
2023-05-07T07:48:41.456Z,2.15
2023-05-07T07:51:44.473Z,1.80
2023-05-07T07:54:48.519Z,2.33
2023-05-07T07:57:51.651Z,2.05
2023-05-07T08:00:56.901Z,1.90
2023-05-07T08:04:04.279Z,1.92
2023-05-07T08:07:11.372Z,1.90
2023-05-07T08:10:22.159Z,2.25
2023-05-07T08:13:28.832Z,1.67
2023-05-07T08:16:31.849Z,1.90
2023-05-07T08:19:37.927Z,2.20
2023-05-07T08:22:43.153Z,2.20
2023-05-07T08:25:46.046Z,1.92
2023-05-07T08:28:49.580Z,1.90
2023-05-07T08:31:52.405Z,2.05
2023-05-07T08:34:56.810Z,2.00
2023-05-07T08:37:59.557Z,1.83
2023-05-07T08:41:02.450Z,1.73
2023-05-07T08:44:13.534Z,2.05
2023-05-07T08:47:16.991Z,1.88
2023-05-07T08:50:22.509Z,1.98
2023-05-07T08:53:26.627Z,2.10
2023-05-07T08:56:29.417Z,1.92
2023-05-07T08:59:32.492Z,2.38
2023-05-07T09:02:35.547Z,1.70
2023-05-07T09:05:39.905Z,2.10
2023-05-07T09:08:51.548Z,2.38
2023-05-07T09:11:59.671Z,1.77
2023-05-07T09:15:04.375Z,1.45
2023-05-07T09:18:08.653Z,1.80
2023-05-07T09:21:17.201Z,2.17
2023-05-07T09:24:20.807Z,1.90
2023-05-07T09:27:24.341Z,1.90
2023-05-07T09:30:30.109Z,2.30
2023-05-07T09:33:34.672Z,1.90
2023-05-07T09:36:41.438Z,1.98
2023-05-07T09:42:51.596Z,1.90
2023-05-07T09:45:54.678Z,2.20
2023-05-07T09:49:04.034Z,1.90
2023-05-07T09:52:12.196Z,1.80
2023-05-07T09:55:23.837Z,1.90
2023-05-07T09:58:28.125Z,2.15
2023-05-07T10:01:33.213Z,2.20
2023-05-07T10:04:37.721Z,2.35
2023-05-07T10:07:43.264Z,2.08
2023-05-07T10:10:46.610Z,2.10
2023-05-07T10:13:54.862Z,1.80
2023-05-07T10:16:59.091Z,2.22
2023-05-07T10:20:04.528Z,2.10
2023-05-07T10:23:14.829Z,1.85
2023-05-07T10:26:24.029Z,2.00
2023-05-07T10:29:35.698Z,1.95
2023-05-07T10:32:44.609Z,2.20
2023-05-07T10:35:53.164Z,1.92
2023-05-07T10:38:57.629Z,2.10
2023-05-07T10:42:10.244Z,2.17
2023-05-07T10:45:17.653Z,2.30
2023-05-07T10:48:30.239Z,1.98
2023-05-07T10:51:39.816Z,2.20
2023-05-07T10:55:26.391Z,1.98
2023-05-07T10:59:32.633Z,1.90
2023-05-07T11:03:08.135Z,2.08
2023-05-07T11:06:26.568Z,2.33
2023-05-07T11:10:02.645Z,2.00
2023-05-07T11:13:19.898Z,1.90
2023-05-07T11:16:28.213Z,2.60
2023-05-07T11:19:52.283Z,2.03
2023-05-07T11:23:05.186Z,2.47
2023-05-07T11:26:13.399Z,1.85
2023-05-07T11:29:22.265Z,2.47
2023-05-07T11:32:31.110Z,1.98
2023-05-07T11:35:37.153Z,1.98
2023-05-07T11:38:41.565Z,1.85
2023-05-07T11:41:44.379Z,2.13
2023-05-07T11:44:49.640Z,1.98
2023-05-07T11:47:52.564Z,2.25
2023-05-07T11:51:01.744Z,2.10
2023-05-07T11:54:09.557Z,1.85
2023-05-07T11:57:16.980Z,1.83
2023-05-07T12:00:21.712Z,2.17
2023-05-07T12:03:24.606Z,2.22
2023-05-07T12:06:28.099Z,2.08
2023-05-07T12:09:30.971Z,2.00
2023-05-07T12:12:40.632Z,2.15
2023-05-07T12:15:44.845Z,2.08
2023-05-07T12:18:48.461Z,1.92
2023-05-07T12:21:51.401Z,1.83
2023-05-07T12:24:59.653Z,1.80
2023-05-07T12:28:02.983Z,2.25
2023-05-07T12:31:07.770Z,1.95
2023-05-07T12:34:12.638Z,2.15
2023-05-07T12:37:15.599Z,2.05
2023-05-07T12:40:18.375Z,2.00
2023-05-07T12:43:22.160Z,2.30
2023-05-07T12:46:26.336Z,2.40
2023-05-07T12:49:29.494Z,2.05
2023-05-07T12:52:32.579Z,1.95
2023-05-07T12:55:43.508Z,1.65
2023-05-07T12:58:46.605Z,1.70
2023-05-07T13:01:51.173Z,2.50
2023-05-07T13:04:54.081Z,1.80
2023-05-07T13:07:57.895Z,1.70
2023-05-07T13:11:04.439Z,2.17
2023-05-07T13:14:07.307Z,2.08
2023-05-07T13:17:11.423Z,1.60
2023-05-07T13:20:14.713Z,2.08
2023-05-07T13:23:17.494Z,1.90
2023-05-07T13:26:26.719Z,2.00
2023-05-07T13:29:31.216Z,1.95
2023-05-07T13:32:35.464Z,1.90
2023-05-07T13:35:38.642Z,1.90
2023-05-07T13:38:41.564Z,2.13
2023-05-07T13:41:44.332Z,2.00
2023-05-07T13:44:47.523Z,2.15
2023-05-07T13:47:51.730Z,2.25
2023-05-07T13:50:54.528Z,2.00
2023-05-07T13:53:57.297Z,1.70
2023-05-07T13:57:00.135Z,1.88
2023-05-07T14:00:03.279Z,1.70
2023-05-07T14:03:08.685Z,1.85
2023-05-07T14:06:11.533Z,1.98
2023-05-07T14:09:14.422Z,1.80
2023-05-07T14:12:17.199Z,1.80
2023-05-07T14:15:20.022Z,1.55
2023-05-07T14:18:24.198Z,1.88
2023-05-07T14:21:26.985Z,1.88
2023-05-07T14:24:38.053Z,2.25
2023-05-07T14:27:41.658Z,1.90
2023-05-07T14:30:44.462Z,1.70
2023-05-07T14:33:48.622Z,1.60
2023-05-07T14:36:51.353Z,1.58
2023-05-07T14:39:54.196Z,1.80
2023-05-07T14:42:58.245Z,1.40
2023-05-07T14:46:01.034Z,1.48
2023-05-07T14:49:05.733Z,1.60
2023-05-07T14:52:10.008Z,1.60
2023-05-07T14:55:12.947Z,1.23
2023-05-07T14:58:15.985Z,1.50
2023-05-07T15:01:18.812Z,1.30
2023-05-07T15:04:22.983Z,1.60
2023-05-07T15:07:25.706Z,1.42
2023-05-07T15:10:28.912Z,1.38
2023-05-07T15:13:31.852Z,1.52
2023-05-07T15:16:35.234Z,1.27
2023-05-07T15:19:39.435Z,1.20
2023-05-07T15:22:42.783Z,2.00
2023-05-07T15:25:46.447Z,1.10
2023-05-07T15:28:50.034Z,1.40
2023-05-07T15:31:52.873Z,1.40
2023-05-07T15:34:57.003Z,1.38
2023-05-07T15:37:59.852Z,1.23
2023-05-07T15:41:02.639Z,1.13
2023-05-07T15:44:06.152Z,1.15
2023-05-07T15:47:09.123Z,1.23
2023-05-07T15:50:13.455Z,1.10
2023-05-07T15:53:16.273Z,1.20
2023-05-07T15:56:19.101Z,1.10
2023-05-07T15:59:21.915Z,1.30
2023-05-07T16:02:24.862Z,1.20
2023-05-07T16:05:29.113Z,1.33
2023-05-07T16:08:33.695Z,1.20
2023-05-07T16:11:36.536Z,1.13
2023-05-07T16:14:39.355Z,1.20
2023-05-07T16:17:42.110Z,1.00
2023-05-07T16:20:47.073Z,1.10
2023-05-07T16:23:50.848Z,1.00
2023-05-07T16:26:53.607Z,1.00
2023-05-07T16:29:56.416Z,1.27
2023-05-07T16:32:59.238Z,1.00
2023-05-07T16:36:03.456Z,1.20
2023-05-07T16:39:06.710Z,1.15
2023-05-07T16:42:09.507Z,1.35
2023-05-07T16:45:12.792Z,1.20
2023-05-07T16:48:15.841Z,1.20
2023-05-07T16:51:20.040Z,1.45
2023-05-07T16:54:22.792Z,1.48
2023-05-07T16:57:25.989Z,1.20
2023-05-07T17:00:34.816Z,1.15
2023-05-07T17:03:45.558Z,1.30
2023-05-07T17:06:49.797Z,0.93
2023-05-07T17:09:52.546Z,1.00
2023-05-07T17:12:55.358Z,1.10
2023-05-07T17:15:58.178Z,0.95
2023-05-07T17:19:01.024Z,1.20
2023-05-07T17:22:05.167Z,1.10
2023-05-07T17:25:08.643Z,1.10
2023-05-07T17:28:11.892Z,1.23
2023-05-07T17:31:15.030Z,1.35
2023-05-07T17:34:17.883Z,1.30
2023-05-07T17:37:23.687Z,1.20
2023-05-07T17:40:29.541Z,1.02
2023-05-07T17:43:32.271Z,1.17
2023-05-07T17:46:35.153Z,1.30
2023-05-07T17:49:38.368Z,1.20
2023-05-07T17:52:42.899Z,1.40
2023-05-07T17:55:46.405Z,1.10
2023-05-07T17:58:58.814Z,1.30
2023-05-07T18:02:02.158Z,1.15
2023-05-07T18:05:05.352Z,1.10
2023-05-07T18:08:09.510Z,1.00
2023-05-07T18:11:12.730Z,1.00
2023-05-07T18:14:15.666Z,1.08
2023-05-07T18:17:18.536Z,1.10
2023-05-07T18:20:21.411Z,1.10
2023-05-07T18:23:26.593Z,1.15
2023-05-07T18:26:29.406Z,1.10
2023-05-07T18:29:32.200Z,1.23
2023-05-07T18:32:35.061Z,1.00
2023-05-07T18:35:38.418Z,1.98
2023-05-07T18:38:43.113Z,0.93
2023-05-07T18:41:48.778Z,1.10
2023-05-07T18:44:51.603Z,1.00
2023-05-07T18:47:54.454Z,1.02
2023-05-07T18:50:57.879Z,1.08
2023-05-07T18:54:02.218Z,1.20
2023-05-07T18:57:05.057Z,1.33
2023-05-07T19:00:09.315Z,1.13
2023-05-07T19:03:12.614Z,0.95
2023-05-07T19:06:15.364Z,1.08
2023-05-07T19:09:19.499Z,1.10
2023-05-07T19:12:22.223Z,0.90
2023-05-07T19:15:25.123Z,0.93
2023-05-07T19:18:29.716Z,0.90
2023-05-07T19:21:33.780Z,1.00
2023-05-07T19:24:37.853Z,1.00
2023-05-07T19:27:41.147Z,1.08
2023-05-07T19:30:43.991Z,1.33
2023-05-07T19:33:46.812Z,1.10
2023-05-07T19:36:49.551Z,1.10
2023-05-07T19:39:54.211Z,0.90
2023-05-07T19:42:57.043Z,1.20
2023-05-07T19:45:59.822Z,1.08
2023-05-07T19:49:02.803Z,1.83
2023-05-07T19:52:06.098Z,1.00
2023-05-07T19:55:11.170Z,1.20
2023-05-07T19:58:16.638Z,1.10
2023-05-07T20:01:19.532Z,0.90
2023-05-07T20:04:22.336Z,1.13
2023-05-07T20:07:25.087Z,1.08
2023-05-07T20:10:29.255Z,1.10
2023-05-07T20:13:32.216Z,1.10
2023-05-07T20:16:35.154Z,1.10
2023-05-07T20:19:38.104Z,1.13
2023-05-07T20:22:40.846Z,0.93
2023-05-07T20:25:45.003Z,1.10
2023-05-07T20:28:47.750Z,1.00
2023-05-07T20:31:50.591Z,1.10
2023-05-07T20:34:53.415Z,1.23
2023-05-07T20:37:56.222Z,1.10
2023-05-07T20:41:00.464Z,1.13
2023-05-07T20:44:03.198Z,1.15
2023-05-07T20:47:06.109Z,1.20
2023-05-07T20:50:09.693Z,1.00
2023-05-07T20:53:12.422Z,0.98
2023-05-07T20:56:16.670Z,1.75
2023-05-07T20:59:19.460Z,1.00
2023-05-07T21:02:22.291Z,1.10
2023-05-07T21:05:25.102Z,1.00
2023-05-07T21:08:28.578Z,0.93
2023-05-07T21:11:32.737Z,0.95
2023-05-07T21:14:37.063Z,1.27
2023-05-07T21:17:39.855Z,1.10
2023-05-07T21:20:42.733Z,0.98
2023-05-07T21:23:45.517Z,0.82
2023-05-07T21:26:49.674Z,1.10
2023-05-07T21:29:52.429Z,1.10
2023-05-07T21:32:55.708Z,1.10
2023-05-07T21:35:58.522Z,1.13
2023-05-07T21:39:01.312Z,1.20
2023-05-07T21:42:05.720Z,1.10
2023-05-07T21:45:09.109Z,1.00
2023-05-07T21:48:11.885Z,1.00
2023-05-07T21:51:14.660Z,1.20
2023-05-07T21:54:17.429Z,1.13
2023-05-07T21:57:22.032Z,0.88
2023-05-07T22:00:25.218Z,0.90
2023-05-07T22:03:28.270Z,1.02
2023-05-07T22:06:31.352Z,1.13
2023-05-07T22:09:34.221Z,1.20
2023-05-07T22:12:38.539Z,1.30
2023-05-07T22:15:53.160Z,1.20
2023-05-07T22:18:59.290Z,0.98
2023-05-07T22:22:02.207Z,1.30
2023-05-07T22:25:05.578Z,1.20
2023-05-07T22:28:09.669Z,1.55
2023-05-07T22:31:12.424Z,1.27
2023-05-07T22:34:15.641Z,1.38
2023-05-07T22:37:18.512Z,1.17
2023-05-07T22:40:21.439Z,1.00
2023-05-07T22:43:25.805Z,1.50
2023-05-07T22:46:29.049Z,1.00
2023-05-07T22:49:31.834Z,1.10
2023-05-07T22:52:34.809Z,1.23
2023-05-07T22:55:37.539Z,1.63
2023-05-07T22:58:41.939Z,1.40
2023-05-07T23:01:45.178Z,1.17
2023-05-07T23:04:48.105Z,1.20
2023-05-07T23:07:51.037Z,1.50
2023-05-07T23:10:53.812Z,1.27
2023-05-07T23:13:57.956Z,1.40
2023-05-07T23:17:01.182Z,1.20
2023-05-07T23:20:04.213Z,1.40
2023-05-07T23:23:07.036Z,1.40
2023-05-07T23:26:10.067Z,1.80
2023-05-07T23:29:14.158Z,1.38
2023-05-07T23:32:16.877Z,1.20
2023-05-07T23:35:19.846Z,1.30
2023-05-07T23:38:22.571Z,1.30
2023-05-07T23:41:25.412Z,1.42
2023-05-07T23:44:29.505Z,1.42
2023-05-07T23:47:32.289Z,1.50
2023-05-07T23:50:35.502Z,1.25
2023-05-07T23:53:38.338Z,1.35
2023-05-07T23:56:41.140Z,1.30
2023-05-07T23:59:45.213Z,1.27
